Time;durP1;ratioP1;P1;durP2;ratioP2;P2;SDS_P1;SDS_P2;PMS_P1;PMS_P2;Temp;Humidity;BMP_temperature;BMP_pressure;BME280_temperature;BME280_humidity;BME280_pressure;Samples;Min_cycle;Max_cycle;Signal;HPM_P1;HPM_P2
2022/10/05 00:02:22;;;;;;;;;;;22.40;46.80;21.20;101360.00;;;;5106237;28;19920;-69
2022/10/05 00:05:45;;;;;;;;;;;22.40;46.80;21.20;101348.00;;;;5110305;28;19938;-69
2022/10/05 00:08:32;;;;;;;;;;;22.40;46.90;21.20;101342.00;;;;5098144;28;19920;-69
2022/10/05 00:11:18;;;;;;;;;;;22.40;46.80;21.20;101355.00;;;;5081322;28;19920;-69
2022/10/05 00:14:18;;;;;;;;;;;22.40;46.80;21.20;101356.00;;;;5098050;28;19935;-69
2022/10/05 00:17:04;;;;;;;;;;;22.40;46.80;21.10;101351.00;;;;5097725;28;20379;-69
2022/10/05 00:19:53;;;;;;;;;;;22.40;46.80;21.20;101350.00;;;;5075577;28;19922;-69
2022/10/05 00:22:39;;;;;;;;;;;22.40;46.90;21.20;101351.00;;;;5083853;28;19923;-70
2022/10/05 00:25:25;;;;;;;;;;;22.30;46.70;21.10;101348.00;;;;5110720;28;19924;-69
2022/10/05 00:28:16;;;;;;;;;;;22.40;46.80;21.10;101349.00;;;;5099031;28;19930;-69
2022/10/05 00:31:14;;;;;;;;;;;22.40;46.90;21.10;101349.00;;;;5081015;28;19967;-69
2022/10/05 00:34:00;;;;;;;;;;;22.40;46.90;21.10;101352.00;;;;5096581;28;19924;-69
2022/10/05 00:36:46;;;;;;;;;;;22.40;46.90;21.10;101357.00;;;;5082738;28;19919;-69
2022/10/05 00:39:32;;;;;;;;;;;22.40;46.90;21.10;101342.00;;;;5097306;28;20334;-69
2022/10/05 00:42:24;;;;;;;;;;;22.40;46.90;21.10;101348.00;;;;5110578;27;19916;-69
2022/10/05 00:46:06;;;;;;;;;;;22.40;46.90;21.20;101356.00;;;;5098626;28;19940;-70
2022/10/05 00:49:19;;;;;;;;;;;22.40;46.90;21.10;101342.00;;;;5068481;28;19916;-70
2022/10/05 00:52:19;;;;;;;;;;;22.40;46.90;21.10;101339.00;;;;5103867;27;20379;-69
2022/10/05 00:55:27;;;;;;;;;;;22.40;46.90;21.10;101329.00;;;;5103095;28;19955;-69
2022/10/05 00:58:22;;;;;;;;;;;22.40;46.90;21.20;101332.00;;;;5086957;28;19934;-69
2022/10/05 01:01:21;;;;;;;;;;;22.40;46.90;21.10;101311.00;;;;5098796;28;20425;-69
2022/10/05 01:04:22;;;;;;;;;;;22.40;46.90;21.10;101311.00;;;;5085156;28;20453;-69
2022/10/05 01:07:29;;;;;;;;;;;22.40;46.90;21.10;101322.00;;;;5085312;28;20347;-69
2022/10/05 01:10:25;;;;;;;;;;;22.40;46.90;21.10;101313.00;;;;5087061;28;19926;-70
2022/10/05 01:13:19;;;;;;;;;;;22.40;46.90;21.10;101310.00;;;;5097754;28;19931;-69
2022/10/05 01:16:21;;;;;;;;;;;22.40;47.60;21.10;101306.00;;;;5083831;28;19926;-69
2022/10/05 01:19:58;;;;;;;;;;;22.40;47.00;21.10;101309.00;;;;5092003;27;19923;-69
2022/10/05 01:23:09;;;;;;;;;;;22.40;47.00;21.10;101317.00;;;;5049373;28;19946;-69
2022/10/05 01:26:20;;;;;;;;;;;22.40;47.00;21.10;101324.00;;;;5066360;28;19935;-69
2022/10/05 01:29:15;;;;;;;;;;;22.40;47.00;21.10;101330.00;;;;5078047;28;19943;-69
2022/10/05 01:32:07;;;;;;;;;;;22.40;47.00;21.10;101323.00;;;;5074566;28;19920;-69
2022/10/05 01:35:07;;;;;;;;;;;22.40;47.00;21.10;101315.00;;;;5060690;28;19925;-70
2022/10/05 01:38:12;;;;;;;;;;;22.40;47.00;21.10;101308.00;;;;5073986;28;19927;-70
2022/10/05 01:40:58;;;;;;;;;;;22.40;47.00;21.10;101308.00;;;;5095874;27;20373;-69
2022/10/05 01:43:45;;;;;;;;;;;22.40;47.00;21.10;101304.00;;;;5081754;28;19969;-69
2022/10/05 01:46:58;;;;;;;;;;;22.40;47.00;21.10;101299.00;;;;5066234;28;20421;-69
2022/10/05 01:49:56;;;;;;;;;;;22.40;47.00;21.10;101309.00;;;;5090756;28;20327;-69
2022/10/05 01:52:58;;;;;;;;;;;22.40;47.00;21.10;101299.00;;;;5075565;28;20019;-69
2022/10/05 01:55:51;;;;;;;;;;;22.40;47.00;21.10;101290.00;;;;5100730;28;19969;-69
2022/10/05 01:58:58;;;;;;;;;;;22.40;47.10;21.10;101282.00;;;;5084714;28;20364;-69
2022/10/05 02:01:49;;;;;;;;;;;22.40;47.10;21.10;101291.00;;;;5088252;28;20023;-69
2022/10/05 02:04:41;;;;;;;;;;;22.40;47.00;21.10;101289.00;;;;5081062;28;20145;-69
2022/10/05 02:07:37;;;;;;;;;;;22.40;47.00;21.10;101285.00;;;;5073008;28;19916;-69
2022/10/05 02:10:37;;;;;;;;;;;22.40;47.10;21.10;101284.00;;;;5067461;28;19920;-69
2022/10/05 02:13:37;;;;;;;;;;;22.40;47.10;21.10;101288.00;;;;5090410;28;19920;-69
2022/10/05 02:16:32;;;;;;;;;;;22.40;47.10;21.10;101288.00;;;;5114023;27;19954;-69
2022/10/05 02:19:22;;;;;;;;;;;22.40;47.10;21.10;101284.00;;;;5108994;27;19916;-69
2022/10/05 02:22:27;;;;;;;;;;;22.40;47.00;21.10;101281.00;;;;5110656;27;19924;-69
2022/10/05 02:25:14;;;;;;;;;;;22.40;47.00;21.10;101269.00;;;;5084085;28;19955;-69
2022/10/05 02:28:07;;;;;;;;;;;22.40;47.10;21.10;101265.00;;;;5096432;28;19981;-69
2022/10/05 02:30:57;;;;;;;;;;;22.40;47.10;21.10;101252.00;;;;5101293;27;19924;-69
2022/10/05 02:33:43;;;;;;;;;;;22.40;47.10;21.10;101247.00;;;;5098969;28;19923;-69
2022/10/05 02:36:32;;;;;;;;;;;22.40;47.10;21.10;101251.00;;;;5103942;28;19920;-69
2022/10/05 02:39:23;;;;;;;;;;;22.40;47.10;21.10;101240.00;;;;5099823;28;19927;-70
2022/10/05 02:42:27;;;;;;;;;;;22.40;47.10;21.10;101232.00;;;;5099004;28;19927;-69
2022/10/05 02:45:33;;;;;;;;;;;22.40;47.10;21.10;101223.00;;;;5100584;28;19920;-69
2022/10/05 02:48:19;;;;;;;;;;;22.60;47.20;21.10;101229.00;;;;5070485;28;19961;-69
2022/10/05 02:51:22;;;;;;;;;;;22.40;47.10;21.10;101225.00;;;;5102759;28;19966;-69
2022/10/05 02:54:23;;;;;;;;;;;22.40;47.10;21.10;101227.00;;;;5085367;28;20413;-69
2022/10/05 02:57:28;;;;;;;;;;;22.40;47.20;21.10;101231.00;;;;5087017;28;19919;-69
2022/10/05 03:00:20;;;;;;;;;;;22.30;47.10;21.10;101227.00;;;;5109428;27;19920;-69
2022/10/05 03:03:20;;;;;;;;;;;22.30;47.10;21.10;101228.00;;;;5088742;28;19916;-70
2022/10/05 03:06:24;;;;;;;;;;;22.40;47.10;21.10;101231.00;;;;5087535;28;19927;-69
2022/10/05 03:09:10;;;;;;;;;;;22.40;47.20;21.10;101220.00;;;;5098158;27;20361;-69
2022/10/05 03:12:35;;;;;;;;;;;22.40;47.20;21.10;101212.00;;;;5099265;28;19916;-70
2022/10/05 03:15:32;;;;;;;;;;;22.40;47.10;21.10;101217.00;;;;5035931;28;19925;-69
2022/10/05 03:18:33;;;;;;;;;;;22.30;47.10;21.10;101198.00;;;;5087638;28;19916;-69
2022/10/05 03:21:35;;;;;;;;;;;22.40;47.20;21.10;101187.00;;;;5099135;28;19989;-69
2022/10/05 03:24:36;;;;;;;;;;;22.40;47.20;21.10;101185.00;;;;5098583;28;19985;-69
2022/10/05 03:27:34;;;;;;;;;;;22.40;47.20;21.10;101189.00;;;;5100601;28;20041;-69
2022/10/05 03:30:22;;;;;;;;;;;22.40;47.20;21.10;101186.00;;;;5110007;27;19919;-69
2022/10/05 03:33:26;;;;;;;;;;;22.30;47.10;21.10;101174.00;;;;5112678;27;19935;-69
2022/10/05 03:36:29;;;;;;;;;;;22.40;47.20;21.10;101175.00;;;;5099543;28;19920;-69
2022/10/05 03:39:35;;;;;;;;;;;22.40;47.20;21.10;101178.00;;;;5107585;27;19916;-69
2022/10/05 03:42:37;;;;;;;;;;;22.40;47.20;21.10;101170.00;;;;5107451;27;19977;-69
2022/10/05 03:45:31;;;;;;;;;;;22.40;47.30;21.10;101170.00;;;;5081786;28;19964;-69
2022/10/05 03:48:22;;;;;;;;;;;22.40;47.20;21.10;101173.00;;;;5095525;28;20331;-69
2022/10/05 03:51:18;;;;;;;;;;;22.40;47.50;21.10;101183.00;;;;5095916;28;20548;-70
2022/10/05 03:54:44;;;;;;;;;;;22.40;47.20;21.10;101189.00;;;;5099968;28;19924;-69
2022/10/05 03:57:32;;;;;;;;;;;22.30;47.20;21.10;101202.00;;;;4999348;28;19921;-70
2022/10/05 04:00:22;;;;;;;;;;;22.30;47.20;21.10;101200.00;;;;4990297;28;19921;-69
2022/10/05 04:03:11;;;;;;;;;;;22.40;47.30;21.10;101202.00;;;;5086794;28;20149;-69
2022/10/05 04:06:01;;;;;;;;;;;22.30;47.20;21.10;101204.00;;;;5097025;28;19916;-70
2022/10/05 04:08:51;;;;;;;;;;;22.30;47.20;21.10;101203.00;;;;5094876;28;20319;-70
2022/10/05 04:11:59;;;;;;;;;;;22.40;47.20;21.10;101189.00;;;;5112489;28;19922;-69
2022/10/05 04:14:46;;;;;;;;;;;22.40;47.20;21.10;101198.00;;;;5098218;28;20357;-69
2022/10/05 04:17:39;;;;;;;;;;;22.40;47.20;21.10;101201.00;;;;5110213;28;20124;-69
2022/10/05 04:20:36;;;;;;;;;;;22.40;47.30;21.10;101193.00;;;;5103361;28;19922;-69
2022/10/05 04:23:43;;;;;;;;;;;22.40;47.20;21.10;101199.00;;;;5111356;27;19958;-69
2022/10/05 04:26:49;;;;;;;;;;;22.40;47.30;21.10;101196.00;;;;5086541;28;19923;-69
2022/10/05 04:29:39;;;;;;;;;;;22.30;47.20;21.10;101191.00;;;;5098933;28;19920;-69
2022/10/05 04:32:34;;;;;;;;;;;22.30;47.20;21.10;101198.00;;;;5087666;28;20399;-69
2022/10/05 04:35:42;;;;;;;;;;;22.40;47.30;21.10;101189.00;;;;5099622;28;19931;-70
2022/10/05 04:38:43;;;;;;;;;;;22.30;47.20;21.10;101186.00;;;;5098403;28;20269;-69
2022/10/05 04:41:32;;;;;;;;;;;22.30;47.20;21.10;101189.00;;;;5113449;27;20143;-70
2022/10/05 04:44:34;;;;;;;;;;;22.30;47.30;21.10;101186.00;;;;5100060;28;19924;-69
2022/10/05 04:47:51;;;;;;;;;;;22.30;47.30;21.10;101179.00;;;;5100112;28;19920;-69
2022/10/05 04:50:47;;;;;;;;;;;22.30;47.30;21.10;101168.00;;;;5083342;28;20379;-69
2022/10/05 04:53:38;;;;;;;;;;;22.30;47.30;21.10;101173.00;;;;5114300;27;19920;-69
2022/10/05 04:56:33;;;;;;;;;;;22.30;47.30;21.10;101164.00;;;;5102237;28;20317;-69
2022/10/05 04:59:44;;;;;;;;;;;22.30;47.30;21.00;101163.00;;;;5100798;28;19951;-69
2022/10/05 05:02:51;;;;;;;;;;;22.30;47.30;21.00;101161.00;;;;5113123;27;19927;-69
2022/10/05 05:05:42;;;;;;;;;;;22.30;47.30;21.00;101160.00;;;;5101063;28;19966;-69
2022/10/05 05:08:34;;;;;;;;;;;22.30;47.30;21.00;101162.00;;;;5083299;28;20418;-69
2022/10/05 05:11:27;;;;;;;;;;;22.30;47.30;21.00;101160.00;;;;5100773;28;19915;-69
2022/10/05 05:14:42;;;;;;;;;;;22.30;47.30;21.00;101164.00;;;;5084389;28;20250;-69
2022/10/05 05:17:46;;;;;;;;;;;22.30;47.30;21.00;101164.00;;;;5113793;27;19916;-69
2022/10/05 05:20:42;;;;;;;;;;;22.30;47.40;21.00;101167.00;;;;5095422;28;19915;-69
2022/10/05 05:23:28;;;;;;;;;;;22.20;47.30;21.00;101164.00;;;;5083937;28;20690;-70
2022/10/05 05:26:33;;;;;;;;;;;22.30;47.40;21.00;101162.00;;;;5096960;28;19920;-69
2022/10/05 05:29:19;;;;;;;;;;;22.30;47.40;21.00;101159.00;;;;5095546;28;19925;-69
2022/10/05 05:32:16;;;;;;;;;;;22.30;47.40;21.00;101147.00;;;;5097111;28;19924;-69
2022/10/05 05:35:02;;;;;;;;;;;22.20;47.40;21.00;101144.00;;;;5100998;28;19919;-69
2022/10/05 05:38:19;;;;;;;;;;;22.30;47.40;21.00;101159.00;;;;5097189;28;19924;-69
2022/10/05 05:41:16;;;;;;;;;;;22.30;47.40;21.00;101156.00;;;;5080441;27;19923;-69
2022/10/05 05:44:11;;;;;;;;;;;22.20;47.40;21.00;101156.00;;;;5081169;28;19927;-69
2022/10/05 05:47:06;;;;;;;;;;;22.20;47.40;21.00;101158.00;;;;5067323;28;20218;-69
2022/10/05 05:50:29;;;;;;;;;;;22.20;47.40;21.00;101155.00;;;;5096027;28;19916;-69
2022/10/05 05:53:21;;;;;;;;;;;22.30;47.50;21.00;101159.00;;;;5072756;28;20320;-69
2022/10/05 05:56:31;;;;;;;;;;;22.20;47.40;21.00;101152.00;;;;5096042;28;19923;-69
2022/10/05 05:59:29;;;;;;;;;;;22.20;47.40;21.00;101156.00;;;;5092477;27;19966;-69
2022/10/05 06:02:18;;;;;;;;;;;22.20;47.50;21.00;101164.00;;;;5099342;28;19926;-69
2022/10/05 06:05:30;;;;;;;;;;;22.20;47.50;21.00;101153.00;;;;5097169;28;20084;-69
2022/10/05 06:08:23;;;;;;;;;;;22.20;47.50;21.00;101150.00;;;;5095764;28;19975;-69
2022/10/05 06:11:25;;;;;;;;;;;22.20;47.50;21.00;101163.00;;;;5099198;28;20384;-69
2022/10/05 06:14:45;;;;;;;;;;;22.20;47.50;21.00;101146.00;;;;5105805;27;19928;-69
2022/10/05 06:17:33;;;;;;;;;;;22.20;47.50;21.00;101161.00;;;;5071928;28;19919;-69
2022/10/05 06:20:34;;;;;;;;;;;22.20;47.50;21.00;101155.00;;;;5109427;27;20277;-69
2022/10/05 06:23:24;;;;;;;;;;;22.20;47.50;21.00;101147.00;;;;5107673;27;19923;-69
2022/10/05 06:26:28;;;;;;;;;;;22.20;47.50;21.00;101155.00;;;;5081461;28;19923;-69
2022/10/05 06:29:17;;;;;;;;;;;22.20;47.50;21.00;101154.00;;;;5104548;27;19924;-69
2022/10/05 06:32:05;;;;;;;;;;;22.20;47.50;21.00;101150.00;;;;5090958;28;20454;-69
2022/10/05 06:35:18;;;;;;;;;;;22.30;47.60;21.00;101155.00;;;;5111020;27;19967;-69
2022/10/05 06:38:10;;;;;;;;;;;22.20;47.50;21.00;101154.00;;;;5074504;28;19928;-69
2022/10/05 06:41:18;;;;;;;;;;;22.20;47.50;21.00;101151.00;;;;5093443;28;19916;-69
2022/10/05 06:44:11;;;;;;;;;;;22.30;47.60;21.00;101159.00;;;;5096462;28;19930;-69
2022/10/05 06:47:19;;;;;;;;;;;22.20;47.50;21.00;101147.00;;;;5101343;27;19920;-69
2022/10/05 06:50:14;;;;;;;;;;;22.20;47.60;21.00;101153.00;;;;5102653;28;19927;-70
2022/10/05 06:53:21;;;;;;;;;;;22.20;47.60;21.00;101147.00;;;;5095273;27;19934;-69
2022/10/05 06:56:21;;;;;;;;;;;22.30;47.60;21.00;101153.00;;;;5100229;28;19923;-69
2022/10/05 06:59:18;;;;;;;;;;;22.30;48.30;21.00;101152.00;;;;5089505;28;19927;-69
2022/10/05 07:02:05;;;;;;;;;;;22.30;47.60;21.00;101163.00;;;;5093753;28;19983;-69
2022/10/05 07:05:14;;;;;;;;;;;22.20;48.30;21.00;101169.00;;;;5078108;28;19919;-69
2022/10/05 07:08:12;;;;;;;;;;;22.30;47.60;21.00;101171.00;;;;5101394;27;20494;-69
2022/10/05 07:11:16;;;;;;;;;;;22.20;47.60;21.00;101176.00;;;;5070898;28;19920;-69
2022/10/05 07:14:23;;;;;;;;;;;22.20;47.60;21.00;101170.00;;;;5087864;28;20258;-70
2022/10/05 07:17:16;;;;;;;;;;;22.30;47.60;21.00;101174.00;;;;5104796;27;19927;-69
2022/10/05 07:20:07;;;;;;;;;;;22.20;47.60;21.00;101173.00;;;;5105044;27;20360;-69
2022/10/05 07:23:31;;;;;;;;;;;22.20;47.60;21.00;101174.00;;;;5104958;27;19920;-69
2022/10/05 07:26:36;;;;;;;;;;;22.30;47.70;21.00;101172.00;;;;5097238;28;19924;-69
2022/10/05 07:29:31;;;;;;;;;;;22.20;47.70;21.00;101179.00;;;;5087627;28;19991;-69
2022/10/05 07:32:26;;;;;;;;;;;22.20;47.70;21.00;101172.00;;;;5105763;27;20407;-69
2022/10/05 07:42:18;;;;;;;;;;;22.20;47.70;21.00;101176.00;;;;5088299;28;19970;-69
2022/10/05 07:45:21;;;;;;;;;;;22.20;47.70;21.00;101183.00;;;;5098176;27;19919;-69
2022/10/05 07:48:19;;;;;;;;;;;22.20;47.80;21.00;101179.00;;;;5104500;27;19922;-69
2022/10/05 07:51:06;;;;;;;;;;;22.20;47.80;21.00;101174.00;;;;5081949;28;19920;-70
2022/10/05 07:54:09;;;;;;;;;;;22.20;47.80;21.00;101176.00;;;;5100773;27;19950;-69
2022/10/05 07:57:20;;;;;;;;;;;22.20;47.80;21.00;101188.00;;;;5086768;28;19916;-70
2022/10/05 08:00:20;;;;;;;;;;;22.20;47.80;20.90;101192.00;;;;5092665;28;20364;-69
2022/10/05 08:03:10;;;;;;;;;;;22.20;47.80;20.90;101196.00;;;;5090106;28;19920;-69
2022/10/05 08:05:56;;;;;;;;;;;22.20;47.80;20.90;101199.00;;;;5097781;28;19920;-70
2022/10/05 08:08:51;;;;;;;;;;;22.20;47.80;20.90;101190.00;;;;5091481;28;19924;-70
2022/10/05 08:11:49;;;;;;;;;;;22.20;47.80;20.90;101194.00;;;;5093193;28;19920;-70
2022/10/05 08:14:51;;;;;;;;;;;22.20;47.90;20.80;101197.00;;;;5090664;28;19920;-70
2022/10/05 08:17:40;;;;;;;;;;;22.20;47.90;20.80;101193.00;;;;5104742;28;20006;-70
2022/10/05 08:20:39;;;;;;;;;;;22.10;47.80;20.80;101196.00;;;;5091573;28;19927;-70
2022/10/05 08:23:55;;;;;;;;;;;22.10;47.80;20.80;101198.00;;;;5106876;28;19995;-70
2022/10/05 08:26:48;;;;;;;;;;;22.10;47.80;20.80;101199.00;;;;5090951;28;20427;-71
2022/10/05 08:29:38;;;;;;;;;;;22.20;47.90;20.80;101197.00;;;;5092956;28;19919;-70
2022/10/05 08:32:42;;;;;;;;;;;22.10;47.80;20.80;101193.00;;;;5089609;28;19923;-70
2022/10/05 08:35:32;;;;;;;;;;;22.10;47.80;20.80;101187.00;;;;5089857;28;19926;-70
2022/10/05 08:38:21;;;;;;;;;;;22.10;47.80;20.80;101182.00;;;;5092234;28;19962;-70
2022/10/05 08:41:37;;;;;;;;;;;22.10;47.80;20.80;101179.00;;;;5113271;28;19919;-70
2022/10/05 08:45:01;;;;;;;;;;;22.10;47.80;20.80;101175.00;;;;5103358;28;19927;-70
2022/10/05 08:48:11;;;;;;;;;;;22.10;47.80;20.80;101174.00;;;;5094224;28;19916;-70
2022/10/05 08:51:07;;;;;;;;;;;22.10;47.80;20.80;101166.00;;;;5091922;28;19967;-70
2022/10/05 08:54:36;;;;;;;;;;;22.10;47.80;20.80;101168.00;;;;5080625;28;19920;-70
2022/10/05 08:57:37;;;;;;;;;;;22.10;47.80;20.80;101172.00;;;;5079912;28;19926;-70
2022/10/05 09:00:23;;;;;;;;;;;22.10;47.80;20.80;101162.00;;;;5101578;28;20360;-70
2022/10/05 09:03:24;;;;;;;;;;;22.10;47.80;20.80;101159.00;;;;5092200;28;19922;-70
2022/10/05 09:06:42;;;;;;;;;;;22.10;47.80;20.80;101164.00;;;;5080644;28;20451;-70
2022/10/05 09:09:46;;;;;;;;;;;22.10;47.80;20.80;101162.00;;;;5089486;28;20340;-70
2022/10/05 09:12:41;;;;;;;;;;;22.10;47.80;20.80;101153.00;;;;5093012;28;20000;-70
2022/10/05 09:15:52;;;;;;;;;;;22.10;48.50;20.80;101156.00;;;;5083539;28;19946;-70
2022/10/05 09:19:02;;;;;;;;;;;22.10;47.90;20.80;101162.00;;;;5089872;28;20058;-70
2022/10/05 09:22:03;;;;;;;;;;;22.10;47.80;20.80;101157.00;;;;5092423;28;19920;-70
2022/10/05 09:24:52;;;;;;;;;;;22.10;47.80;20.80;101143.00;;;;5104018;27;19916;-70
2022/10/05 09:27:42;;;;;;;;;;;22.10;47.80;20.80;101156.00;;;;5088582;28;20366;-70
2022/10/05 09:30:41;;;;;;;;;;;22.10;47.80;20.80;101155.00;;;;5093259;28;19976;-71
2022/10/05 09:33:29;;;;;;;;;;;22.10;47.80;20.80;101151.00;;;;5094158;28;19981;-71
2022/10/05 09:36:41;;;;;;;;;;;22.10;47.80;20.80;101146.00;;;;5094216;28;20000;-70
2022/10/05 09:39:46;;;;;;;;;;;22.10;47.90;20.80;101144.00;;;;5089465;27;19973;-70
2022/10/05 09:42:54;;;;;;;;;;;22.10;47.90;20.80;101142.00;;;;5089678;28;20304;-70
2022/10/05 09:46:06;;;;;;;;;;;22.10;48.00;20.80;101135.00;;;;5092442;27;20353;-70
2022/10/05 09:49:00;;;;;;;;;;;22.10;48.00;20.80;101143.00;;;;5103400;27;20003;-69
2022/10/05 09:51:53;;;;;;;;;;;22.10;48.00;20.80;101130.00;;;;5094785;28;19961;-70
2022/10/05 09:55:07;;;;;;;;;;;22.10;48.00;20.80;101128.00;;;;5087636;28;19920;-70
2022/10/05 09:58:30;;;;;;;;;;;22.10;48.00;20.80;101125.00;;;;5089421;28;19992;-69
2022/10/05 10:01:54;;;;;;;;;;;22.10;48.00;20.80;101121.00;;;;5094814;28;20014;-69
2022/10/05 10:04:48;;;;;;;;;;;22.10;48.00;20.80;101119.00;;;;5019869;28;19990;-69
2022/10/05 10:08:04;;;;;;;;;;;22.10;48.00;20.80;101113.00;;;;5078450;28;19924;-69
2022/10/05 10:11:42;;;;;;;;;;;22.10;48.10;20.80;101118.00;;;;5104533;27;19946;-69
2022/10/05 10:14:55;;;;;;;;;;;22.10;48.10;20.80;101119.00;;;;5062222;28;19995;-69
2022/10/05 10:18:01;;;;;;;;;;;22.10;48.10;20.80;101107.00;;;;5095857;27;19971;-69
2022/10/05 10:21:24;;;;;;;;;;;22.10;48.10;20.80;101095.00;;;;5075671;28;20420;-69
2022/10/05 10:24:28;;;;;;;;;;;22.10;48.10;20.80;101103.00;;;;5094937;28;19920;-69
2022/10/05 10:27:35;;;;;;;;;;;22.10;48.10;20.80;101102.00;;;;5111469;27;19924;-69
2022/10/05 10:30:55;;;;;;;;;;;22.10;48.10;20.90;101094.00;;;;5079200;28;19931;-69
2022/10/05 10:33:55;;;;;;;;;;;22.20;48.20;20.80;101093.00;;;;5091103;28;19928;-69
2022/10/05 10:37:09;;;;;;;;;;;22.20;48.20;20.90;101096.00;;;;5093297;28;19920;-69
2022/10/05 10:40:01;;;;;;;;;;;22.20;48.20;20.90;101084.00;;;;5073383;28;19916;-69
2022/10/05 10:43:25;;;;;;;;;;;22.20;48.20;20.90;101081.00;;;;5092990;28;20007;-73
2022/10/05 10:46:34;;;;;;;;;;;22.20;48.20;20.90;101086.00;;;;5092563;28;20416;-70
2022/10/05 10:49:20;;;;;;;;;;;22.20;48.20;20.90;101076.00;;;;5096208;28;19920;-70
2022/10/05 10:52:25;;;;;;;;;;;22.20;48.20;20.90;101080.00;;;;5095766;28;19927;-70
2022/10/05 10:55:36;;;;;;;;;;;22.20;48.20;20.90;101074.00;;;;5096892;28;19930;-70
2022/10/05 10:59:03;;;;;;;;;;;22.20;48.20;20.90;101077.00;;;;5093479;28;20353;-70
2022/10/05 11:02:00;;;;;;;;;;;22.20;48.20;20.90;101078.00;;;;5084475;28;19962;-70
2022/10/05 11:04:55;;;;;;;;;;;22.20;48.30;20.90;101069.00;;;;5105670;27;19964;-70
2022/10/05 11:08:08;;;;;;;;;;;22.20;48.30;20.90;101064.00;;;;5097290;28;19965;-70
2022/10/05 11:11:23;;;;;;;;;;;22.20;48.30;20.90;101064.00;;;;5083094;28;20285;-70
2022/10/05 11:14:25;;;;;;;;;;;22.20;48.30;20.90;101054.00;;;;5093171;28;20298;-70
2022/10/05 11:17:32;;;;;;;;;;;22.20;48.30;20.90;101056.00;;;;5088142;28;19916;-70
2022/10/05 11:20:43;;;;;;;;;;;22.20;48.30;20.90;101053.00;;;;5111772;27;19920;-70
2022/10/05 11:23:41;;;;;;;;;;;22.20;48.30;20.90;101047.00;;;;5094488;27;19920;-70
2022/10/05 11:26:36;;;;;;;;;;;22.30;48.30;20.90;101032.00;;;;5104863;27;20344;-70
2022/10/05 11:29:40;;;;;;;;;;;22.30;48.40;20.90;101036.00;;;;5074420;28;19990;-70
2022/10/05 11:32:52;;;;;;;;;;;22.30;48.40;20.90;101024.00;;;;5089902;28;20061;-70
2022/10/05 11:35:57;;;;;;;;;;;22.30;48.40;20.90;101021.00;;;;5084583;28;19982;-70
2022/10/05 11:39:21;;;;;;;;;;;22.30;48.40;20.90;101017.00;;;;5104625;27;19916;-70
2022/10/05 11:42:12;;;;;;;;;;;22.30;48.40;20.90;101018.00;;;;5089783;28;19969;-70
2022/10/05 11:45:18;;;;;;;;;;;22.30;48.40;20.90;101008.00;;;;5092061;28;19916;-70
2022/10/05 11:48:32;;;;;;;;;;;22.30;48.40;21.00;101006.00;;;;5102177;27;20038;-70
2022/10/05 11:51:36;;;;;;;;;;;22.30;48.40;21.00;101013.00;;;;5093996;28;20355;-70
2022/10/05 11:54:34;;;;;;;;;;;22.30;48.40;21.00;100997.00;;;;5094069;28;19977;-70
2022/10/05 11:57:53;;;;;;;;;;;22.30;49.10;21.00;100990.00;;;;5099496;28;19920;-70
2022/10/05 12:00:42;;;;;;;;;;;22.30;48.40;21.00;100979.00;;;;5097966;28;19923;-70
2022/10/05 12:03:34;;;;;;;;;;;22.30;48.40;21.00;100983.00;;;;5087231;28;19920;-70
2022/10/05 12:06:36;;;;;;;;;;;22.30;48.50;21.00;100974.00;;;;5078761;28;19920;-69
2022/10/05 12:09:34;;;;;;;;;;;22.30;48.40;21.00;100966.00;;;;5094459;28;20266;-70
2022/10/05 12:12:25;;;;;;;;;;;22.30;48.40;21.00;100964.00;;;;5108283;28;19920;-70
2022/10/05 12:15:25;;;;;;;;;;;22.30;48.40;21.00;100966.00;;;;5069980;28;19923;-70
2022/10/05 12:18:19;;;;;;;;;;;22.30;48.40;21.00;100958.00;;;;5080332;28;19919;-70
2022/10/05 12:21:23;;;;;;;;;;;22.40;48.50;21.00;100951.00;;;;5097415;28;20307;-70
2022/10/05 12:24:34;;;;;;;;;;;22.40;48.50;21.00;100958.00;;;;5094104;28;20042;-70
2022/10/05 12:27:22;;;;;;;;;;;22.40;48.50;21.00;100961.00;;;;5090620;28;19920;-70
2022/10/05 12:30:17;;;;;;;;;;;22.40;48.50;21.10;100945.00;;;;5091739;28;20293;-70
2022/10/05 12:33:20;;;;;;;;;;;22.40;48.50;21.10;100950.00;;;;5103036;28;19916;-69
2022/10/05 12:36:14;;;;;;;;;;;22.40;48.50;21.10;100953.00;;;;5102443;28;19947;-70
2022/10/05 12:39:19;;;;;;;;;;;22.40;48.50;21.10;100953.00;;;;5078708;28;19982;-70
2022/10/05 12:42:16;;;;;;;;;;;22.40;48.50;21.10;100950.00;;;;5098976;28;20044;-70
2022/10/05 12:45:15;;;;;;;;;;;22.50;48.50;21.10;100949.00;;;;5107136;27;19916;-70
2022/10/05 12:48:17;;;;;;;;;;;22.50;48.50;21.10;100943.00;;;;5100117;28;19920;-70
2022/10/05 12:51:12;;;;;;;;;;;22.50;48.60;21.10;100939.00;;;;5100932;28;19963;-70
2022/10/05 12:54:26;;;;;;;;;;;22.50;48.60;21.10;100931.00;;;;5081371;28;19920;-70
2022/10/05 12:57:33;;;;;;;;;;;22.50;48.60;21.10;100933.00;;;;5093225;28;20015;-70
2022/10/05 13:00:20;;;;;;;;;;;22.50;48.60;21.20;100939.00;;;;5100150;28;19924;-70
2022/10/05 13:03:35;;;;;;;;;;;22.50;48.60;21.20;100944.00;;;;5096154;28;19920;-70
2022/10/05 13:06:43;;;;;;;;;;;22.50;48.60;21.20;100933.00;;;;5091652;27;20515;-70
2022/10/05 13:09:54;;;;;;;;;;;22.60;48.60;21.20;100930.00;;;;5081233;28;20010;-70
2022/10/05 13:13:13;;;;;;;;;;;22.60;48.60;21.20;100931.00;;;;5105025;27;19926;-70
2022/10/05 13:16:08;;;;;;;;;;;22.60;48.60;21.20;100930.00;;;;5087846;27;19928;-70
2022/10/05 13:19:25;;;;;;;;;;;22.60;48.60;21.20;100931.00;;;;5096468;28;19930;-70
2022/10/05 13:22:34;;;;;;;;;;;22.60;48.60;21.20;100926.00;;;;5092022;28;19920;-70
2022/10/05 13:25:30;;;;;;;;;;;22.60;48.50;21.20;100923.00;;;;5104534;27;19920;-70
2022/10/05 13:28:37;;;;;;;;;;;22.70;48.60;21.30;100925.00;;;;5094313;28;19923;-70
2022/10/05 13:31:39;;;;;;;;;;;22.70;48.60;21.30;100915.00;;;;5082514;27;20368;-70
2022/10/05 13:34:56;;;;;;;;;;;22.60;48.50;21.30;100914.00;;;;5100281;28;19975;-70
2022/10/05 13:37:48;;;;;;;;;;;22.70;48.50;21.30;100915.00;;;;5096761;28;19963;-70
2022/10/05 13:40:38;;;;;;;;;;;22.70;48.60;21.30;100913.00;;;;5096556;28;20314;-70
2022/10/05 13:43:28;;;;;;;;;;;22.70;48.60;21.30;100920.00;;;;5109337;27;20072;-70
2022/10/05 13:46:45;;;;;;;;;;;22.70;48.60;21.30;100909.00;;;;5110730;27;19927;-70
2022/10/05 13:49:37;;;;;;;;;;;22.70;48.60;21.30;100913.00;;;;5093821;28;20436;-70
2022/10/05 13:53:06;;;;;;;;;;;22.70;48.50;21.30;100908.00;;;;5096944;28;20594;-70
2022/10/05 13:56:20;;;;;;;;;;;22.70;48.50;21.30;100907.00;;;;5032102;28;20421;-70
2022/10/05 13:59:21;;;;;;;;;;;22.80;48.50;21.40;100909.00;;;;5095770;28;19920;-70
2022/10/05 14:02:08;;;;;;;;;;;22.80;48.50;21.40;100908.00;;;;5094125;28;19977;-70
2022/10/05 14:05:12;;;;;;;;;;;22.80;48.50;21.40;100884.00;;;;5063255;28;19931;-70
2022/10/05 14:08:01;;;;;;;;;;;22.80;48.50;21.40;100884.00;;;;5080741;27;19917;-70
2022/10/05 14:10:47;;;;;;;;;;;22.80;48.50;21.40;100886.00;;;;5081524;28;19927;-70
2022/10/05 14:13:46;;;;;;;;;;;22.80;48.40;21.40;100880.00;;;;5108058;27;19920;-70
2022/10/05 14:16:32;;;;;;;;;;;22.80;48.40;21.40;100901.00;;;;5095353;28;19920;-70
2022/10/05 14:19:46;;;;;;;;;;;22.90;48.60;21.40;100893.00;;;;5092443;28;19927;-70
2022/10/05 14:22:32;;;;;;;;;;;22.80;48.40;21.40;100886.00;;;;5075471;28;19923;-70
2022/10/05 14:25:18;;;;;;;;;;;22.90;48.50;21.40;100879.00;;;;5064542;28;19961;-70
2022/10/05 14:28:10;;;;;;;;;;;22.90;48.50;21.40;100875.00;;;;5100409;27;19924;-70
2022/10/05 14:31:22;;;;;;;;;;;22.90;48.40;21.50;100877.00;;;;5078947;28;19927;-70
2022/10/05 14:34:28;;;;;;;;;;;22.90;48.40;21.50;100873.00;;;;5095919;28;20418;-70
2022/10/05 14:37:23;;;;;;;;;;;22.90;48.40;21.50;100865.00;;;;5079386;28;19923;-70
2022/10/05 14:40:29;;;;;;;;;;;22.90;48.40;21.50;100852.00;;;;5103196;27;19926;-70